Time;durP1;ratioP1;P1;durP2;ratioP2;P2;SDS_P1;SDS_P2;PMS_P1;PMS_P2;Temp;Humidity;BMP_temperature;BMP_pressure;BME280_temperature;BME280_humidity;BME280_pressure;Samples;Min_cycle;Max_cycle;Signal;HPM_P1;HPM_P2
2023/12/16 00:01:10;;;;;;;9.63;6.47;;;;;;;;;;5002660;28;20237;-26
2023/12/16 00:03:38;;;;;;;12.13;7.50;;;;;;;;;;5015246;28;20206;-27
2023/12/16 00:06:06;;;;;;;10.57;7.83;;;;;;;;;;5000916;28;20207;-27
2023/12/16 00:08:33;;;;;;;12.17;8.17;;;;;;;;;;5003205;28;20234;-31
2023/12/16 00:11:02;;;;;;;8.80;7.00;;;;;;;;;;5027175;28;20564;-29
2023/12/16 00:13:29;;;;;;;8.73;6.93;;;;;;;;;;5011252;28;20211;-27
2023/12/16 00:15:56;;;;;;;11.40;7.43;;;;;;;;;;5004241;28;20218;-28
2023/12/16 00:18:24;;;;;;;11.07;7.93;;;;;;;;;;5008363;28;20207;-28
2023/12/16 00:20:51;;;;;;;11.30;7.70;;;;;;;;;;5005475;28;20234;-28
2023/12/16 00:23:18;;;;;;;11.00;7.20;;;;;;;;;;5009419;28;20211;-27
2023/12/16 00:25:45;;;;;;;11.63;8.73;;;;;;;;;;5015740;28;20227;-27
2023/12/16 00:28:13;;;;;;;12.07;8.23;;;;;;;;;;5004075;28;20208;-27
2023/12/16 00:30:41;;;;;;;11.17;7.10;;;;;;;;;;5002950;28;20199;-28
2023/12/16 00:33:08;;;;;;;11.63;7.30;;;;;;;;;;5024873;28;20214;-27
2023/12/16 00:35:35;;;;;;;11.20;8.43;;;;;;;;;;5011760;28;20243;-28
2023/12/16 00:38:02;;;;;;;12.87;8.40;;;;;;;;;;5004942;28;20215;-27
2023/12/16 00:40:29;;;;;;;10.57;7.57;;;;;;;;;;5014539;28;20231;-29
2023/12/16 00:42:56;;;;;;;12.70;8.60;;;;;;;;;;5015297;28;20215;-28
2023/12/16 00:45:24;;;;;;;10.97;8.30;;;;;;;;;;5011800;28;20235;-28
2023/12/16 00:47:51;;;;;;;12.23;8.03;;;;;;;;;;5014574;28;20210;-29
2023/12/16 00:50:19;;;;;;;10.57;7.87;;;;;;;;;;5016583;28;20265;-27
2023/12/16 00:52:46;;;;;;;9.60;7.47;;;;;;;;;;5005033;28;20211;-27
2023/12/16 00:55:13;;;;;;;10.57;8.33;;;;;;;;;;5017291;28;20236;-29
2023/12/16 00:57:40;;;;;;;10.27;7.30;;;;;;;;;;5006497;28;20615;-28
2023/12/16 01:00:08;;;;;;;10.97;8.33;;;;;;;;;;5003730;28;20211;-27
2023/12/16 01:02:36;;;;;;;7.67;6.50;;;;;;;;;;5010660;28;20218;-27
2023/12/16 01:05:04;;;;;;;10.73;7.20;;;;;;;;;;5011445;28;20235;-29
2023/12/16 01:07:31;;;;;;;10.00;7.00;;;;;;;;;;5000309;28;20238;-29
2023/12/16 01:09:58;;;;;;;9.87;7.00;;;;;;;;;;5011222;28;20204;-29
2023/12/16 01:12:25;;;;;;;11.07;8.40;;;;;;;;;;5010996;28;20207;-28
2023/12/16 01:14:52;;;;;;;11.00;7.67;;;;;;;;;;5014602;28;20237;-29
2023/12/16 01:17:20;;;;;;;11.97;8.00;;;;;;;;;;5005120;28;20223;-27
2023/12/16 01:19:48;;;;;;;8.97;7.50;;;;;;;;;;5013470;28;20214;-29
2023/12/16 01:22:15;;;;;;;11.43;8.53;;;;;;;;;;4993033;28;20228;-27
2023/12/16 01:24:43;;;;;;;10.03;7.73;;;;;;;;;;5017283;28;20223;-29
2023/12/16 01:27:10;;;;;;;11.73;8.17;;;;;;;;;;5022010;28;20215;-28
2023/12/16 01:29:37;;;;;;;15.40;7.90;;;;;;;;;;5011643;28;20205;-28
2023/12/16 01:32:04;;;;;;;11.53;7.90;;;;;;;;;;5024821;28;20217;-27
2023/12/16 01:34:31;;;;;;;11.93;8.57;;;;;;;;;;5017437;28;20223;-29
2023/12/16 01:37:00;;;;;;;13.20;8.80;;;;;;;;;;4993642;28;20205;-29
2023/12/16 01:39:27;;;;;;;10.13;7.00;;;;;;;;;;5014809;28;20226;-27
2023/12/16 01:41:55;;;;;;;8.80;6.47;;;;;;;;;;5012346;28;20215;-31
2023/12/16 01:44:22;;;;;;;10.23;6.63;;;;;;;;;;5007879;28;20257;-29
2023/12/16 01:46:49;;;;;;;11.27;7.93;;;;;;;;;;5016644;28;20212;-28
2023/12/16 01:49:16;;;;;;;9.50;7.60;;;;;;;;;;5016083;28;20221;-27
2023/12/16 01:51:43;;;;;;;13.77;8.10;;;;;;;;;;5004204;28;20214;-32
2023/12/16 01:54:12;;;;;;;10.43;8.10;;;;;;;;;;5015365;28;20238;-29
2023/12/16 01:56:39;;;;;;;9.20;7.03;;;;;;;;;;5028841;28;20207;-28
2023/12/16 01:59:07;;;;;;;7.93;6.20;;;;;;;;;;5010185;28;20207;-27
2023/12/16 02:01:34;;;;;;;9.63;7.80;;;;;;;;;;4997372;28;20231;-28
2023/12/16 02:04:01;;;;;;;11.90;8.20;;;;;;;;;;5006982;28;20704;-29
2023/12/16 02:06:28;;;;;;;12.97;7.53;;;;;;;;;;4999475;28;20208;-28
2023/12/16 02:08:55;;;;;;;10.87;8.43;;;;;;;;;;5009117;28;20207;-29
2023/12/16 02:11:23;;;;;;;10.70;7.97;;;;;;;;;;5011132;28;20210;-28
2023/12/16 02:13:51;;;;;;;11.23;8.47;;;;;;;;;;5004908;28;20227;-28
2023/12/16 02:16:18;;;;;;;11.13;7.97;;;;;;;;;;5023209;28;20217;-28
2023/12/16 02:18:45;;;;;;;10.50;8.10;;;;;;;;;;5019402;28;20214;-29
2023/12/16 02:21:12;;;;;;;9.97;7.47;;;;;;;;;;5005006;28;20235;-29
2023/12/16 02:23:41;;;;;;;9.07;7.30;;;;;;;;;;5011609;28;20217;-26
2023/12/16 02:26:08;;;;;;;11.13;8.37;;;;;;;;;;5013523;28;20207;-27
2023/12/16 02:28:35;;;;;;;10.50;6.97;;;;;;;;;;5006047;28;20208;-28
2023/12/16 02:31:02;;;;;;;9.93;6.90;;;;;;;;;;5013270;28;20207;-27
2023/12/16 02:33:30;;;;;;;10.17;7.77;;;;;;;;;;5013290;28;20203;-28
2023/12/16 02:35:57;;;;;;;9.97;7.03;;;;;;;;;;5011366;28;20208;-28
2023/12/16 02:38:24;;;;;;;10.20;7.97;;;;;;;;;;5007675;28;20294;-30
2023/12/16 02:40:52;;;;;;;10.43;7.90;;;;;;;;;;5015710;28;20322;-27
2023/12/16 02:43:21;;;;;;;12.20;8.87;;;;;;;;;;5010279;28;20215;-27
2023/12/16 02:45:48;;;;;;;10.70;7.90;;;;;;;;;;5020211;28;20309;-27
2023/12/16 02:48:15;;;;;;;9.00;7.33;;;;;;;;;;5026044;28;20214;-27
2023/12/16 02:50:42;;;;;;;10.17;7.37;;;;;;;;;;5013106;28;20207;-27
2023/12/16 02:53:09;;;;;;;12.47;7.60;;;;;;;;;;5010977;28;20559;-29
2023/12/16 02:55:36;;;;;;;11.30;8.20;;;;;;;;;;5023801;28;20230;-29
2023/12/16 02:58:04;;;;;;;10.17;8.50;;;;;;;;;;5015686;28;20210;-26
2023/12/16 03:00:32;;;;;;;10.03;7.77;;;;;;;;;;5000168;28;20208;-28
2023/12/16 03:02:59;;;;;;;13.93;8.80;;;;;;;;;;5003642;28;20213;-29
2023/12/16 03:05:26;;;;;;;12.53;9.23;;;;;;;;;;5010995;28;20273;-28
2023/12/16 03:07:53;;;;;;;11.93;8.83;;;;;;;;;;5012544;28;20214;-28
2023/12/16 03:10:20;;;;;;;12.60;9.63;;;;;;;;;;5023195;28;20210;-26
2023/12/16 03:12:47;;;;;;;12.17;8.87;;;;;;;;;;5022132;28;20211;-27
2023/12/16 03:15:15;;;;;;;13.10;8.23;;;;;;;;;;5020400;28;20234;-26
2023/12/16 03:17:43;;;;;;;10.73;8.53;;;;;;;;;;5027694;28;20210;-28
2023/12/16 03:20:11;;;;;;;9.97;7.53;;;;;;;;;;4999530;28;20559;-28
2023/12/16 03:22:38;;;;;;;10.97;8.30;;;;;;;;;;4997445;28;20313;-26
2023/12/16 03:25:06;;;;;;;9.67;7.00;;;;;;;;;;5008745;28;20227;-27
2023/12/16 03:27:33;;;;;;;10.20;7.40;;;;;;;;;;5008899;28;20221;-27
2023/12/16 03:30:00;;;;;;;9.20;7.07;;;;;;;;;;5005260;28;20208;-26
2023/12/16 03:32:29;;;;;;;9.80;7.33;;;;;;;;;;5018492;28;20215;-27
2023/12/16 03:34:56;;;;;;;9.20;7.07;;;;;;;;;;5002297;28;22304;-28
2023/12/16 03:37:23;;;;;;;9.13;6.50;;;;;;;;;;5004294;28;20212;-28
2023/12/16 03:39:50;;;;;;;8.80;6.60;;;;;;;;;;5004835;28;20215;-29
2023/12/16 03:42:17;;;;;;;8.80;7.20;;;;;;;;;;5007883;28;20253;-29
2023/12/16 03:44:46;;;;;;;9.60;7.00;;;;;;;;;;5007659;28;20270;-28
2023/12/16 03:47:13;;;;;;;9.50;7.20;;;;;;;;;;5007659;28;20207;-28
2023/12/16 03:49:42;;;;;;;9.13;6.87;;;;;;;;;;5003538;28;20615;-27
2023/12/16 03:52:09;;;;;;;9.70;7.13;;;;;;;;;;4992522;28;20290;-27
2023/12/16 03:54:36;;;;;;;9.53;6.87;;;;;;;;;;5016242;28;20231;-27
2023/12/16 03:57:03;;;;;;;10.23;7.37;;;;;;;;;;5010455;28;20206;-30
2023/12/16 03:59:30;;;;;;;9.47;6.87;;;;;;;;;;5005784;28;20310;-29
2023/12/16 04:01:57;;;;;;;10.00;6.60;;;;;;;;;;5015655;28;20230;-26
2023/12/16 04:04:24;;;;;;;9.73;7.77;;;;;;;;;;5021302;28;20231;-28
2023/12/16 04:06:53;;;;;;;8.37;6.60;;;;;;;;;;5009995;28;20210;-29
2023/12/16 04:09:20;;;;;;;8.53;6.77;;;;;;;;;;5018589;28;20203;-26
2023/12/16 04:11:47;;;;;;;9.70;6.30;;;;;;;;;;5019396;28;20233;-27
2023/12/16 04:14:15;;;;;;;7.90;6.33;;;;;;;;;;5010626;28;20638;-29
2023/12/16 04:16:42;;;;;;;7.57;5.73;;;;;;;;;;5001703;28;20199;-27
2023/12/16 04:19:09;;;;;;;8.20;6.03;;;;;;;;;;5012560;28;20238;-29
2023/12/16 04:21:37;;;;;;;11.73;7.27;;;;;;;;;;5005352;28;20230;-29
2023/12/16 04:24:05;;;;;;;10.27;6.70;;;;;;;;;;5022214;28;20231;-27
2023/12/16 04:26:32;;;;;;;7.20;6.00;;;;;;;;;;5024207;28;20211;-28
2023/12/16 04:28:59;;;;;;;8.00;6.23;;;;;;;;;;5006697;28;20204;-28
2023/12/16 04:31:26;;;;;;;8.40;6.83;;;;;;;;;;5015563;28;20280;-28
2023/12/16 04:33:55;;;;;;;8.27;6.50;;;;;;;;;;5028715;28;20227;-28
2023/12/16 04:36:22;;;;;;;11.87;6.70;;;;;;;;;;5017414;28;20298;-26
2023/12/16 04:38:49;;;;;;;11.20;6.23;;;;;;;;;;5021842;28;20209;-28
2023/12/16 04:41:17;;;;;;;9.47;6.53;;;;;;;;;;5019459;28;20195;-28
2023/12/16 04:43:45;;;;;;;8.80;6.40;;;;;;;;;;5011003;28;20207;-32
2023/12/16 04:46:12;;;;;;;12.07;7.97;;;;;;;;;;5000858;28;20208;-27
2023/12/16 04:48:39;;;;;;;10.20;6.80;;;;;;;;;;5018466;28;20198;-28
2023/12/16 04:51:06;;;;;;;12.37;7.67;;;;;;;;;;5009121;28;20710;-29
2023/12/16 04:53:33;;;;;;;9.60;6.90;;;;;;;;;;5021745;28;20207;-27
2023/12/16 04:56:01;;;;;;;13.57;7.67;;;;;;;;;;5022186;28;20299;-28
2023/12/16 04:58:29;;;;;;;12.53;7.93;;;;;;;;;;5017096;28;20203;-26
2023/12/16 05:00:56;;;;;;;10.10;6.77;;;;;;;;;;5003781;28;20223;-28
2023/12/16 05:03:23;;;;;;;17.83;7.97;;;;;;;;;;5021373;28;20223;-29
2023/12/16 05:05:51;;;;;;;10.87;7.17;;;;;;;;;;5012355;28;20231;-28
2023/12/16 05:08:19;;;;;;;9.07;6.87;;;;;;;;;;5019035;28;20234;-27
2023/12/16 05:10:47;;;;;;;9.53;7.17;;;;;;;;;;5011510;28;20208;-28
2023/12/16 05:13:14;;;;;;;11.03;7.47;;;;;;;;;;5029622;28;20202;-27
2023/12/16 05:15:43;;;;;;;9.33;8.07;;;;;;;;;;5004062;28;20262;-29
2023/12/16 05:18:10;;;;;;;10.67;8.53;;;;;;;;;;5013023;28;20207;-29
2023/12/16 05:20:38;;;;;;;11.87;8.10;;;;;;;;;;5006539;28;20226;-27
2023/12/16 05:23:06;;;;;;;10.77;7.80;;;;;;;;;;5010064;28;20235;-31
2023/12/16 05:25:33;;;;;;;13.10;8.03;;;;;;;;;;5011195;28;20278;-29
2023/12/16 05:28:00;;;;;;;11.50;7.90;;;;;;;;;;5028318;28;20225;-26
2023/12/16 05:30:27;;;;;;;13.70;7.37;;;;;;;;;;5010002;28;20202;-29
2023/12/16 05:32:55;;;;;;;11.33;7.57;;;;;;;;;;5016961;28;20214;-27
2023/12/16 05:35:22;;;;;;;11.43;8.07;;;;;;;;;;5018098;28;20219;-29
2023/12/16 05:37:49;;;;;;;11.27;7.93;;;;;;;;;;5010055;28;20212;-27
2023/12/16 05:40:17;;;;;;;8.47;7.27;;;;;;;;;;5006335;28;20207;-29
2023/12/16 05:42:44;;;;;;;10.10;7.70;;;;;;;;;;5022168;28;20231;-28
2023/12/16 05:45:13;;;;;;;9.87;6.93;;;;;;;;;;5016113;28;20234;-27
2023/12/16 05:47:40;;;;;;;9.13;5.83;;;;;;;;;;5006036;28;20207;-26
2023/12/16 05:50:09;;;;;;;6.60;5.67;;;;;;;;;;5011735;28;20212;-26
2023/12/16 05:52:36;;;;;;;7.17;5.53;;;;;;;;;;5005744;28;20599;-29
2023/12/16 05:55:04;;;;;;;8.00;5.57;;;;;;;;;;5018659;28;20231;-32
2023/12/16 05:57:31;;;;;;;7.33;5.73;;;;;;;;;;5006432;28;20253;-29
2023/12/16 05:59:58;;;;;;;8.17;6.10;;;;;;;;;;5002402;28;20215;-29
2023/12/16 06:02:25;;;;;;;8.77;7.20;;;;;;;;;;5018093;28;20227;-26
2023/12/16 06:04:52;;;;;;;7.57;6.33;;;;;;;;;;5013494;28;20231;-30
2023/12/16 06:07:20;;;;;;;7.70;6.30;;;;;;;;;;5010039;28;20207;-28
2023/12/16 06:09:48;;;;;;;6.80;4.93;;;;;;;;;;5018549;28;20210;-26
2023/12/16 06:12:15;;;;;;;6.70;5.23;;;;;;;;;;5017802;28;20199;-29
2023/12/16 06:14:42;;;;;;;5.67;5.03;;;;;;;;;;4997674;28;20227;-29
2023/12/16 06:17:09;;;;;;;7.80;5.27;;;;;;;;;;5015148;28;20210;-29
2023/12/16 06:19:36;;;;;;;5.87;4.80;;;;;;;;;;5014849;28;20203;-33
2023/12/16 06:22:03;;;;;;;6.17;4.60;;;;;;;;;;5009872;28;20227;-29
2023/12/16 06:24:31;;;;;;;6.47;4.73;;;;;;;;;;5032337;28;20237;-27
2023/12/16 06:26:58;;;;;;;7.40;5.00;;;;;;;;;;5015059;28;20207;-29
2023/12/16 06:29:25;;;;;;;6.40;4.47;;;;;;;;;;5013061;28;20210;-29
2023/12/16 06:31:52;;;;;;;7.97;4.37;;;;;;;;;;5028491;28;20215;-30
2023/12/16 06:34:21;;;;;;;6.37;4.77;;;;;;;;;;5016156;28;20218;-28
2023/12/16 06:36:48;;;;;;;6.07;4.90;;;;;;;;;;5011563;28;20761;-28
2023/12/16 06:39:15;;;;;;;8.97;4.93;;;;;;;;;;5020035;28;20207;-27
2023/12/16 06:41:43;;;;;;;6.47;4.67;;;;;;;;;;5013166;28;20211;-27
2023/12/16 06:44:10;;;;;;;5.83;4.57;;;;;;;;;;5009092;28;20239;-27
2023/12/16 06:46:37;;;;;;;5.03;4.30;;;;;;;;;;4996366;28;20208;-28
2023/12/16 06:49:05;;;;;;;4.60;3.93;;;;;;;;;;5019597;28;20204;-28
2023/12/16 06:51:32;;;;;;;7.80;4.30;;;;;;;;;;5010821;28;20210;-28
2023/12/16 06:53:59;;;;;;;6.27;5.10;;;;;;;;;;5021716;28;20222;-28
2023/12/16 06:56:26;;;;;;;5.17;4.17;;;;;;;;;;5012670;28;20214;-29
2023/12/16 06:58:54;;;;;;;6.00;4.70;;;;;;;;;;5002170;28;20215;-28
2023/12/16 07:01:23;;;;;;;5.50;4.40;;;;;;;;;;5004526;28;20207;-28
2023/12/16 07:03:50;;;;;;;4.23;3.73;;;;;;;;;;5010286;28;20246;-27
2023/12/16 07:06:20;;;;;;;5.57;4.20;;;;;;;;;;5007240;28;20217;-28
2023/12/16 07:08:47;;;;;;;4.63;4.17;;;;;;;;;;5019721;28;20839;-28
2023/12/16 07:11:14;;;;;;;4.83;4.03;;;;;;;;;;5020669;28;20219;-27
2023/12/16 07:13:42;;;;;;;6.73;4.73;;;;;;;;;;5015832;28;20207;-26
2023/12/16 07:16:14;;;;;;;6.67;4.27;;;;;;;;;;5009467;28;20617;-26
2023/12/16 07:18:41;;;;;;;5.27;4.30;;;;;;;;;;5026657;28;20237;-29
2023/12/16 07:21:09;;;;;;;7.40;4.20;;;;;;;;;;4995265;28;20213;-27
2023/12/16 07:23:36;;;;;;;5.80;4.30;;;;;;;;;;5021332;28;20229;-29
2023/12/16 07:26:03;;;;;;;5.63;3.87;;;;;;;;;;5019543;28;20210;-27
2023/12/16 07:28:30;;;;;;;4.93;3.80;;;;;;;;;;5010866;28;20213;-28
2023/12/16 07:30:59;;;;;;;4.33;3.93;;;;;;;;;;5008299;28;20204;-28
2023/12/16 07:33:27;;;;;;;4.53;3.57;;;;;;;;;;5011789;28;20222;-27
2023/12/16 07:35:54;;;;;;;7.03;4.50;;;;;;;;;;5004501;28;20250;-28
2023/12/16 07:38:22;;;;;;;5.37;3.93;;;;;;;;;;5014033;28;20203;-29
2023/12/16 07:40:49;;;;;;;5.77;4.20;;;;;;;;;;5031152;28;20206;-30
2023/12/16 07:43:16;;;;;;;5.07;3.87;;;;;;;;;;5027887;28;20230;-27
2023/12/16 07:45:43;;;;;;;3.97;3.57;;;;;;;;;;5006078;28;20230;-27
2023/12/16 07:48:10;;;;;;;7.53;3.73;;;;;;;;;;5010079;28;20270;-28
2023/12/16 07:50:39;;;;;;;4.70;4.20;;;;;;;;;;4997421;28;20212;-27
2023/12/16 07:53:06;;;;;;;6.27;3.93;;;;;;;;;;5009857;28;20213;-28
2023/12/16 07:55:33;;;;;;;8.40;4.00;;;;;;;;;;5012480;28;20230;-28
2023/12/16 07:58:00;;;;;;;5.30;4.33;;;;;;;;;;5011295;28;20673;-29
2023/12/16 08:00:28;;;;;;;15.07;3.80;;;;;;;;;;5000921;28;20203;-28
2023/12/16 08:02:55;;;;;;;4.40;3.73;;;;;;;;;;5008248;28;20242;-29
2023/12/16 08:05:22;;;;;;;5.60;3.60;;;;;;;;;;5009894;28;20281;-26
2023/12/16 08:07:51;;;;;;;4.13;3.73;;;;;;;;;;5005563;28;20207;-28
2023/12/16 08:10:18;;;;;;;4.23;3.70;;;;;;;;;;5029122;28;20207;-29
2023/12/16 08:12:45;;;;;;;6.10;3.90;;;;;;;;;;5022449;28;20202;-27
2023/12/16 08:15:12;;;;;;;5.93;3.50;;;;;;;;;;5005190;28;20237;-26
2023/12/16 08:17:39;;;;;;;6.67;4.13;;;;;;;;;;5016915;28;20213;-29
2023/12/16 08:20:07;;;;;;;6.10;3.67;;;;;;;;;;5015713;28;20227;-27
2023/12/16 08:22:34;;;;;;;5.90;4.33;;;;;;;;;;5013163;28;20207;-26
2023/12/16 08:25:03;;;;;;;4.77;3.37;;;;;;;;;;5022678;28;20227;-26
2023/12/16 08:27:30;;;;;;;4.27;3.87;;;;;;;;;;5003633;28;20207;-28
2023/12/16 08:29:57;;;;;;;5.43;4.50;;;;;;;;;;5006826;28;20208;-28
2023/12/16 08:32:24;;;;;;;5.17;4.67;;;;;;;;;;5013340;28;20210;-26
2023/12/16 08:34:51;;;;;;;5.00;4.00;;;;;;;;;;5014559;28;20234;-26
2023/12/16 08:37:18;;;;;;;4.77;3.93;;;;;;;;;;5002390;28;20218;-29
2023/12/16 08:39:46;;;;;;;5.67;4.60;;;;;;;;;;5025270;28;20294;-28
2023/12/16 08:42:15;;;;;;;4.53;4.03;;;;;;;;;;5012798;28;20616;-26
2023/12/16 08:44:42;;;;;;;5.13;4.43;;;;;;;;;;5007620;28;20226;-28
2023/12/16 08:47:11;;;;;;;4.43;3.90;;;;;;;;;;5019032;28;20207;-27
2023/12/16 08:49:38;;;;;;;5.43;4.13;;;;;;;;;;5022800;28;20203;-27
2023/12/16 08:52:06;;;;;;;5.33;4.53;;;;;;;;;;5009509;28;20211;-26
2023/12/16 08:54:33;;;;;;;5.07;3.83;;;;;;;;;;5014610;28;20699;-29
2023/12/16 08:57:01;;;;;;;5.23;4.47;;;;;;;;;;5014774;28;20209;-28
2023/12/16 08:59:30;;;;;;;4.23;3.50;;;;;;;;;;5022313;28;20214;-28
2023/12/16 09:01:57;;;;;;;7.17;4.10;;;;;;;;;;5012237;28;20204;-27
2023/12/16 09:04:24;;;;;;;6.87;4.27;;;;;;;;;;5012395;28;20305;-28
2023/12/16 09:06:51;;;;;;;3.83;3.43;;;;;;;;;;5002035;28;20199;-27
2023/12/16 09:09:18;;;;;;;4.27;3.57;;;;;;;;;;5021704;28;20207;-27
2023/12/16 09:11:45;;;;;;;5.93;3.83;;;;;;;;;;5022771;28;20314;-25
2023/12/16 09:14:12;;;;;;;4.37;3.60;;;;;;;;;;5013312;28;20227;-28
2023/12/16 09:16:41;;;;;;;5.20;3.50;;;;;;;;;;5027290;28;20210;-29
2023/12/16 09:19:08;;;;;;;5.43;3.70;;;;;;;;;;5017413;28;20270;-27
2023/12/16 09:21:36;;;;;;;4.13;3.77;;;;;;;;;;5009081;28;20222;-27
2023/12/16 09:24:03;;;;;;;4.10;3.33;;;;;;;;;;5014526;28;20322;-26
2023/12/16 09:26:30;;;;;;;4.37;3.60;;;;;;;;;;5011694;28;20194;-27
2023/12/16 09:28:57;;;;;;;3.60;3.30;;;;;;;;;;5009940;28;20204;-27
2023/12/16 09:31:24;;;;;;;4.00;3.60;;;;;;;;;;5005096;28;20586;-29
2023/12/16 09:33:58;;;;;;;4.70;3.80;;;;;;;;;;5027154;28;20231;-29
2023/12/16 09:36:27;;;;;;;4.17;3.57;;;;;;;;;;5014911;28;20269;-28
2023/12/16 09:38:54;;;;;;;4.43;3.60;;;;;;;;;;5023662;28;20199;-28
2023/12/16 09:41:23;;;;;;;4.03;3.63;;;;;;;;;;5013077;28;20222;-27
2023/12/16 09:43:52;;;;;;;5.43;3.97;;;;;;;;;;5009541;28;20282;-29
2023/12/16 09:46:19;;;;;;;5.07;4.10;;;;;;;;;;5004096;28;20212;-28
2023/12/16 09:48:47;;;;;;;4.27;3.87;;;;;;;;;;5019224;28;20203;-28
2023/12/16 09:51:15;;;;;;;5.40;4.47;;;;;;;;;;5002826;28;20212;-29
2023/12/16 09:53:42;;;;;;;3.93;3.63;;;;;;;;;;5020928;28;20201;-26
2023/12/16 09:56:11;;;;;;;4.77;3.80;;;;;;;;;;5024155;28;20210;-26
2023/12/16 09:58:41;;;;;;;5.20;3.77;;;;;;;;;;5017721;28;20198;-29
2023/12/16 10:01:09;;;;;;;4.67;4.00;;;;;;;;;;5011236;28;20202;-28
2023/12/16 10:03:36;;;;;;;5.50;3.60;;;;;;;;;;5012070;28;20289;-29
2023/12/16 10:06:04;;;;;;;4.33;3.53;;;;;;;;;;5010078;28;20298;-29
2023/12/16 10:08:32;;;;;;;3.57;3.27;;;;;;;;;;5028191;28;20216;-28
2023/12/16 10:11:00;;;;;;;4.33;3.33;;;;;;;;;;5024207;28;20209;-27
2023/12/16 10:13:27;;;;;;;4.33;3.77;;;;;;;;;;5018453;28;20677;-26
2023/12/16 10:15:54;;;;;;;4.73;3.53;;;;;;;;;;5003960;28;20227;-28
2023/12/16 10:18:21;;;;;;;4.00;3.60;;;;;;;;;;5027801;28;20211;-27
2023/12/16 10:20:48;;;;;;;3.80;3.30;;;;;;;;;;4998440;28;20663;-26
2023/12/16 10:23:16;;;;;;;4.33;3.43;;;;;;;;;;5024526;28;20245;-27
2023/12/16 10:25:45;;;;;;;5.00;3.73;;;;;;;;;;5024812;28;20226;-28
2023/12/16 10:28:12;;;;;;;4.20;3.47;;;;;;;;;;5017113;28;20212;-29
2023/12/16 10:30:39;;;;;;;3.73;3.43;;;;;;;;;;5007426;28;20213;-28
2023/12/16 10:33:09;;;;;;;4.97;3.80;;;;;;;;;;5017208;28;20230;-26
2023/12/16 10:35:37;;;;;;;4.53;3.73;;;;;;;;;;5001857;28;20235;-26
2023/12/16 10:38:05;;;;;;;4.10;3.57;;;;;;;;;;5017791;28;20744;-28
2023/12/16 10:40:33;;;;;;;4.57;3.63;;;;;;;;;;5020644;28;20980;-29
2023/12/16 10:43:09;;;;;;;3.90;3.60;;;;;;;;;;5012206;28;20646;-26
2023/12/16 10:45:36;;;;;;;4.23;3.83;;;;;;;;;;5010459;28;20234;-28
2023/12/16 10:48:06;;;;;;;6.37;3.83;;;;;;;;;;5018886;28;20210;-26
2023/12/16 10:50:48;;;;;;;4.47;3.67;;;;;;;;;;5007549;28;20203;-26
2023/12/16 10:53:19;;;;;;;4.47;3.67;;;;;;;;;;5005023;28;20207;-29
2023/12/16 10:55:45;;;;;;;4.40;3.80;;;;;;;;;;5012360;28;20235;-29
2023/12/16 10:58:18;;;;;;;4.67;3.70;;;;;;;;;;5015485;28;20211;-30
2023/12/16 11:00:47;;;;;;;4.27;3.70;;;;;;;;;;5000709;28;20211;-28
2023/12/16 11:03:17;;;;;;;4.67;3.87;;;;;;;;;;5005103;28;20212;-28
2023/12/16 11:05:46;;;;;;;4.67;3.10;;;;;;;;;;5006320;28;20226;-27
2023/12/16 11:08:14;;;;;;;4.27;3.47;;;;;;;;;;5008681;28;20214;-32
2023/12/16 11:10:41;;;;;;;3.93;3.20;;;;;;;;;;5008555;28;20205;-26
2023/12/16 11:13:09;;;;;;;5.10;3.50;;;;;;;;;;5016664;28;20265;-27
2023/12/16 11:15:38;;;;;;;5.13;3.90;;;;;;;;;;5000997;28;20233;-27
2023/12/16 11:18:09;;;;;;;4.53;3.90;;;;;;;;;;5014410;28;20269;-26
2023/12/16 11:20:39;;;;;;;7.37;3.77;;;;;;;;;;5003096;28;20199;-28
2023/12/16 11:23:06;;;;;;;4.73;3.63;;;;;;;;;;5005053;28;20254;-29
2023/12/16 11:25:35;;;;;;;3.77;3.20;;;;;;;;;;5012011;28;20231;-27
2023/12/16 11:28:02;;;;;;;3.87;3.47;;;;;;;;;;5012190;28;20207;-26
2023/12/16 11:30:30;;;;;;;4.37;3.80;;;;;;;;;;5003297;28;20216;-27
2023/12/16 11:32:59;;;;;;;4.00;3.60;;;;;;;;;;5025721;28;20211;-28
2023/12/16 11:35:45;;;;;;;3.93;3.53;;;;;;;;;;5010246;28;20234;-27
2023/12/16 11:38:32;;;;;;;4.27;3.87;;;;;;;;;;5008158;28;20905;-26
2023/12/16 11:40:59;;;;;;;4.63;3.27;;;;;;;;;;5011913;28;20207;-27
2023/12/16 11:43:47;;;;;;;3.77;3.30;;;;;;;;;;5015486;28;20211;-28
2023/12/16 11:46:32;;;;;;;5.57;3.90;;;;;;;;;;5009237;28;20207;-27
2023/12/16 11:49:02;;;;;;;4.03;3.57;;;;;;;;;;5018510;28;20230;-29
2023/12/16 11:51:29;;;;;;;4.10;3.70;;;;;;;;;;5009571;28;20232;-26
2023/12/16 11:53:58;;;;;;;4.27;3.87;;;;;;;;;;5024420;28;20222;-28
2023/12/16 11:56:25;;;;;;;4.13;3.73;;;;;;;;;;5021603;28;20203;-28
2023/12/16 11:58:57;;;;;;;5.20;4.07;;;;;;;;;;5012781;28;20265;-29
2023/12/16 12:01:24;;;;;;;5.77;4.27;;;;;;;;;;5018101;28;20206;-28
2023/12/16 12:03:51;;;;;;;4.93;3.97;;;;;;;;;;5013793;28;20231;-27
2023/12/16 12:06:22;;;;;;;4.17;3.77;;;;;;;;;;5002219;28;20211;-27
2023/12/16 12:08:49;;;;;;;12.07;4.03;;;;;;;;;;5013082;28;20206;-29
2023/12/16 12:11:17;;;;;;;4.40;3.60;;;;;;;;;;5017332;28;20214;-27
2023/12/16 12:13:45;;;;;;;4.83;3.33;;;;;;;;;;4998925;28;20200;-26
2023/12/16 12:16:29;;;;;;;5.17;3.60;;;;;;;;;;5006353;28;20199;-28
2023/12/16 12:18:57;;;;;;;4.67;3.83;;;;;;;;;;5019214;28;20210;-28
2023/12/16 12:21:29;;;;;;;5.17;4.10;;;;;;;;;;4999331;28;20212;-29
2023/12/16 12:23:57;;;;;;;4.23;3.67;;;;;;;;;;5017925;28;20242;-26
2023/12/16 12:26:24;;;;;;;4.13;3.63;;;;;;;;;;5017251;28;20391;-26
2023/12/16 12:28:57;;;;;;;4.47;4.00;;;;;;;;;;5009886;28;20208;-26
2023/12/16 12:31:24;;;;;;;4.60;3.87;;;;;;;;;;5009189;28;20219;-26
2023/12/16 12:33:52;;;;;;;5.13;4.17;;;;;;;;;;5018298;28;20222;-29
2023/12/16 12:36:19;;;;;;;4.93;4.33;;;;;;;;;;5008928;28;20218;-31
2023/12/16 12:38:53;;;;;;;4.87;4.27;;;;;;;;;;5008085;28;20214;-28
2023/12/16 12:41:20;;;;;;;4.80;3.90;;;;;;;;;;5013081;28;20211;-31
2023/12/16 12:43:47;;;;;;;4.87;4.30;;;;;;;;;;4998711;28;20223;-26
2023/12/16 12:46:16;;;;;;;4.90;4.30;;;;;;;;;;5007568;28;20207;-27
2023/12/16 12:48:52;;;;;;;4.73;4.23;;;;;;;;;;5019153;28;20211;-27
2023/12/16 12:51:19;;;;;;;5.30;4.30;;;;;;;;;;5003284;28;20223;-29
2023/12/16 12:53:56;;;;;;;4.77;4.27;;;;;;;;;;5009904;28;20203;-29
2023/12/16 12:56:28;;;;;;;4.43;4.03;;;;;;;;;;5025076;28;20280;-28
2023/12/16 12:58:57;;;;;;;5.60;3.87;;;;;;;;;;5026466;28;20195;-29
2023/12/16 13:01:24;;;;;;;5.30;4.30;;;;;;;;;;5008673;28;20214;-26
2023/12/16 13:03:51;;;;;;;5.97;3.80;;;;;;;;;;5017638;28;20234;-29
2023/12/16 13:06:19;;;;;;;4.60;3.60;;;;;;;;;;5007861;28;20218;-26
2023/12/16 13:08:47;;;;;;;4.40;3.53;;;;;;;;;;5012627;28;20206;-27
2023/12/16 13:11:14;;;;;;;7.10;3.87;;;;;;;;;;5034069;28;20202;-27
2023/12/16 13:13:41;;;;;;;5.03;3.90;;;;;;;;;;5017112;28;20215;-26
2023/12/16 13:16:09;;;;;;;5.70;3.87;;;;;;;;;;5016058;28;20210;-26
2023/12/16 13:18:41;;;;;;;4.67;3.43;;;;;;;;;;5021947;28;20214;-29
2023/12/16 13:21:09;;;;;;;4.80;3.73;;;;;;;;;;5008492;28;20323;-27
2023/12/16 13:23:37;;;;;;;6.10;4.07;;;;;;;;;;5011785;28;20290;-29
2023/12/16 13:26:06;;;;;;;6.23;3.97;;;;;;;;;;5021376;28;20226;-27
2023/12/16 13:28:33;;;;;;;5.20;4.50;;;;;;;;;;5017047;28;20209;-29
2023/12/16 13:31:01;;;;;;;5.00;3.80;;;;;;;;;;5015581;28;20200;-27
2023/12/16 13:33:28;;;;;;;7.10;4.37;;;;;;;;;;5024398;28;20211;-26
2023/12/16 13:35:55;;;;;;;4.33;3.93;;;;;;;;;;5010461;28;20230;-28
2023/12/16 13:38:22;;;;;;;6.73;4.40;;;;;;;;;;5008819;28;20203;-28
2023/12/16 13:40:51;;;;;;;7.17;4.50;;;;;;;;;;5021673;28;20212;-29
2023/12/16 13:43:20;;;;;;;6.03;4.70;;;;;;;;;;5028869;28;20249;-28
2023/12/16 13:45:47;;;;;;;7.30;4.70;;;;;;;;;;5008975;28;20231;-26
2023/12/16 13:48:14;;;;;;;5.50;4.40;;;;;;;;;;5013366;28;20208;-29
2023/12/16 13:50:41;;;;;;;5.10;4.47;;;;;;;;;;5004321;28;20299;-27
2023/12/16 13:53:08;;;;;;;5.23;3.73;;;;;;;;;;5008589;28;20215;-27
2023/12/16 13:55:35;;;;;;;9.77;5.13;;;;;;;;;;5021164;28;20597;-25
2023/12/16 13:58:02;;;;;;;7.10;5.20;;;;;;;;;;5018462;28;20203;-27
2023/12/16 14:00:31;;;;;;;6.00;4.60;;;;;;;;;;5010382;28;20242;-29
2023/12/16 14:02:58;;;;;;;6.43;4.97;;;;;;;;;;5000768;28;20210;-27
2023/12/16 14:05:25;;;;;;;7.37;5.13;;;;;;;;;;5006513;28;20235;-30
2023/12/16 14:07:52;;;;;;;5.03;4.40;;;;;;;;;;5011493;28;20203;-29
2023/12/16 14:10:19;;;;;;;6.33;5.30;;;;;;;;;;5015028;28;20222;-27
2023/12/16 14:12:46;;;;;;;6.30;4.97;;;;;;;;;;5019561;28;20210;-26
2023/12/16 14:15:14;;;;;;;6.00;4.83;;;;;;;;;;5006922;28;20219;-27
2023/12/16 14:17:43;;;;;;;6.73;4.93;;;;;;;;;;5022761;28;20265;-28
2023/12/16 14:20:11;;;;;;;6.23;5.20;;;;;;;;;;5018594;28;20204;-28
2023/12/16 14:22:38;;;;;;;7.90;5.90;;;;;;;;;;5011272;28;20296;-29
2023/12/16 14:25:09;;;;;;;7.37;5.13;;;;;;;;;;5019181;28;20242;-26
2023/12/16 14:27:37;;;;;;;7.40;4.80;;;;;;;;;;5021437;28;20203;-28
2023/12/16 14:30:05;;;;;;;6.67;5.40;;;;;;;;;;5018263;28;20216;-28
2023/12/16 14:32:32;;;;;;;6.63;5.10;;;;;;;;;;5016722;28;20226;-26
2023/12/16 14:35:02;;;;;;;5.43;4.63;;;;;;;;;;5015524;28;20224;-29
2023/12/16 14:37:29;;;;;;;6.13;4.73;;;;;;;;;;5005760;28;20215;-27
2023/12/16 14:39:56;;;;;;;5.60;4.73;;;;;;;;;;5015784;28;20207;-29
2023/12/16 14:42:23;;;;;;;9.93;5.53;;;;;;;;;;5033134;28;20213;-26
2023/12/16 14:44:50;;;;;;;8.40;4.73;;;;;;;;;;5012694;28;20244;-29